Time;durP1;ratioP1;P1;durP2;ratioP2;P2;SDS_P1;SDS_P2;PMS_P1;PMS_P2;Temp;Humidity;BMP_temperature;BMP_pressure;BME280_temperature;BME280_humidity;BME280_pressure;Samples;Min_cycle;Max_cycle;Signal;HPM_P1;HPM_P2
2023/03/31 00:01:23;;;;;;;18.08;4.00;;;;;;;;;;5063337;28;20483;-63
2023/03/31 00:05:02;;;;;;;14.30;3.50;;;;;;;;;;5065879;28;20606;-62
2023/03/31 00:08:42;;;;;;;12.90;3.67;;;;;;;;;;5059785;28;20131;-64
2023/03/31 00:12:22;;;;;;;17.67;4.30;;;;;;;;;;5066844;28;20400;-62
2023/03/31 00:16:03;;;;;;;12.65;4.13;;;;;;;;;;5067105;28;20051;-64
2023/03/31 00:19:43;;;;;;;11.57;3.80;;;;;;;;;;5066954;28;20125;-62
2023/03/31 00:23:26;;;;;;;14.02;4.10;;;;;;;;;;5067975;28;20110;-62
2023/03/31 00:27:05;;;;;;;13.18;4.00;;;;;;;;;;5063091;28;20047;-64
2023/03/31 00:30:47;;;;;;;14.73;4.03;;;;;;;;;;5061805;28;20123;-64
2023/03/31 00:34:27;;;;;;;12.05;4.00;;;;;;;;;;5063498;28;20531;-65
2023/03/31 00:38:08;;;;;;;16.75;3.85;;;;;;;;;;5067020;28;20414;-62
2023/03/31 00:41:48;;;;;;;14.18;3.20;;;;;;;;;;5062205;28;20048;-63
2023/03/31 00:45:13;;;;;;;8.43;2.17;;;;;;;;;;5053795;28;20048;-64
2023/03/31 00:48:56;;;;;;;12.50;1.88;;;;;;;;;;5061279;28;20076;-64
2023/03/31 00:52:37;;;;;;;9.60;1.83;;;;;;;;;;5062292;28;20045;-64
2023/03/31 00:56:17;;;;;;;8.63;1.83;;;;;;;;;;5064347;28;20522;-63
2023/03/31 00:59:57;;;;;;;6.68;1.95;;;;;;;;;;5061983;28;20275;-64
2023/03/31 01:03:41;;;;;;;10.57;1.67;;;;;;;;;;5060115;28;20128;-62
2023/03/31 01:07:24;;;;;;;6.20;1.52;;;;;;;;;;5065676;28;20059;-62
2023/03/31 01:11:05;;;;;;;6.30;1.58;;;;;;;;;;5056624;28;20123;-65
2023/03/31 01:14:44;;;;;;;6.28;1.92;;;;;;;;;;5062368;28;20234;-63
2023/03/31 01:18:27;;;;;;;9.05;1.63;;;;;;;;;;5061924;28;20067;-64
2023/03/31 01:21:55;;;;;;;7.22;1.90;;;;;;;;;;5059271;28;20071;-64
2023/03/31 01:25:10;;;;;;;11.80;1.90;;;;;;;;;;5064201;28;20041;-64
2023/03/31 01:28:37;;;;;;;;;;;;;;;;;;5052310;28;20165;-63
2023/03/31 01:31:56;;;;;;;6.82;1.90;;;;;;;;;;5056085;28;20326;-66
2023/03/31 01:35:45;;;;;;;7.28;2.30;;;;;;;;;;5062156;28;20041;-63
2023/03/31 01:39:15;;;;;;;9.63;1.60;;;;;;;;;;5062151;28;20825;-63
2023/03/31 01:42:56;;;;;;;8.80;1.95;;;;;;;;;;5067262;28;20488;-63
2023/03/31 01:46:19;;;;;;;5.53;1.80;;;;;;;;;;5062332;28;20148;-63
2023/03/31 01:49:57;;;;;;;7.95;1.85;;;;;;;;;;5067041;28;20048;-63
2023/03/31 01:53:21;;;;;;;8.48;1.85;;;;;;;;;;5061160;28;20079;-62
2023/03/31 01:56:41;;;;;;;6.43;2.00;;;;;;;;;;5060245;28;20181;-62
2023/03/31 02:00:07;;;;;;;6.25;1.77;;;;;;;;;;5059958;28;20045;-63
2023/03/31 02:03:28;;;;;;;7.03;1.65;;;;;;;;;;5061149;28;20056;-63
2023/03/31 02:07:07;;;;;;;9.38;1.70;;;;;;;;;;5058279;28;20122;-63
2023/03/31 02:10:02;;;;;;;11.65;2.13;;;;;;;;;;5062828;28;20515;-63
2023/03/31 02:13:08;;;;;;;7.78;1.65;;;;;;;;;;5058594;28;20044;-62
2023/03/31 02:16:48;;;;;;;8.82;1.77;;;;;;;;;;5066766;28;20264;-62
2023/03/31 02:20:31;;;;;;;9.85;1.70;;;;;;;;;;5061989;28;20044;-63
2023/03/31 02:24:09;;;;;;;6.65;1.95;;;;;;;;;;5066413;28;20108;-63
2023/03/31 02:27:55;;;;;;;5.05;1.67;;;;;;;;;;5076217;28;20045;-63
2023/03/31 02:31:40;;;;;;;9.10;2.00;;;;;;;;;;5074788;28;20053;-63
2023/03/31 02:35:21;;;;;;;11.85;2.05;;;;;;;;;;5062896;28;20267;-62
2023/03/31 02:39:04;;;;;;;9.32;2.20;;;;;;;;;;5065347;28;20136;-62
2023/03/31 02:42:44;;;;;;;9.82;2.00;;;;;;;;;;5063341;28;20059;-61
2023/03/31 02:46:24;;;;;;;8.48;1.88;;;;;;;;;;5065650;28;20044;-60
2023/03/31 02:50:05;;;;;;;7.40;1.90;;;;;;;;;;5059051;28;20369;-60
2023/03/31 02:53:44;;;;;;;10.73;2.35;;;;;;;;;;5067929;28;20071;-63
2023/03/31 02:56:57;;;;;;;12.13;2.28;;;;;;;;;;5072918;28;20102;-61
2023/03/31 03:00:09;;;;;;;12.55;1.90;;;;;;;;;;5066539;28;20051;-63
2023/03/31 03:03:21;;;;;;;7.90;1.73;;;;;;;;;;5068743;28;20032;-62
2023/03/31 03:07:13;;;;;;;9.65;2.03;;;;;;;;;;5072988;28;20044;-63
2023/03/31 03:10:42;;;;;;;7.22;1.98;;;;;;;;;;5068532;28;20040;-61
2023/03/31 03:14:38;;;;;;;7.25;1.70;;;;;;;;;;5060892;28;20045;-63
2023/03/31 03:18:21;;;;;;;9.82;2.33;;;;;;;;;;5062599;28;20037;-62
2023/03/31 03:22:02;;;;;;;8.18;2.05;;;;;;;;;;5067924;28;20055;-65
2023/03/31 03:25:42;;;;;;;13.13;2.63;;;;;;;;;;5074271;28;20100;-62
2023/03/31 03:29:22;;;;;;;7.63;2.03;;;;;;;;;;5065670;28;20061;-61
2023/03/31 03:33:05;;;;;;;6.97;2.22;;;;;;;;;;5064176;28;20400;-64
2023/03/31 03:36:43;;;;;;;12.98;2.22;;;;;;;;;;5063363;28;20052;-61
2023/03/31 03:40:24;;;;;;;11.20;2.35;;;;;;;;;;5060407;28;20382;-62
2023/03/31 03:44:04;;;;;;;5.88;2.00;;;;;;;;;;5058712;28;20048;-60
2023/03/31 03:47:44;;;;;;;8.10;1.63;;;;;;;;;;5064614;28;20048;-62
2023/03/31 03:51:25;;;;;;;12.48;2.33;;;;;;;;;;5063587;28;20131;-62
2023/03/31 03:55:05;;;;;;;10.80;2.42;;;;;;;;;;5065406;28;20518;-60
2023/03/31 03:58:45;;;;;;;8.48;1.90;;;;;;;;;;5060394;28;20048;-61
2023/03/31 04:02:27;;;;;;;7.72;2.25;;;;;;;;;;5061325;28;20048;-60
2023/03/31 04:06:06;;;;;;;9.18;1.80;;;;;;;;;;5061216;28;20041;-62
2023/03/31 04:09:46;;;;;;;11.82;2.50;;;;;;;;;;5061860;28;20048;-61
2023/03/31 04:13:27;;;;;;;10.43;2.45;;;;;;;;;;5065437;28;20051;-62
2023/03/31 04:17:09;;;;;;;9.68;2.00;;;;;;;;;;5064672;28;20040;-62
2023/03/31 04:20:53;;;;;;;7.10;2.05;;;;;;;;;;5066008;28;20726;-61
2023/03/31 04:24:31;;;;;;;15.10;2.42;;;;;;;;;;5064514;28;20059;-61
2023/03/31 04:28:13;;;;;;;7.63;2.22;;;;;;;;;;5064577;28;20049;-64
2023/03/31 04:31:52;;;;;;;6.88;2.40;;;;;;;;;;5053977;28;21149;-62
2023/03/31 04:36:05;;;;;;;10.52;2.50;;;;;;;;;;5064711;28;20640;-62
2023/03/31 04:39:29;;;;;;;9.45;1.88;;;;;;;;;;5060578;28;20043;-62
2023/03/31 04:43:07;;;;;;;10.30;2.53;;;;;;;;;;5065746;28;20070;-62
2023/03/31 04:46:48;;;;;;;7.70;1.63;;;;;;;;;;5066333;28;20044;-61
2023/03/31 04:50:28;;;;;;;10.45;2.08;;;;;;;;;;5063792;28;20036;-61
2023/03/31 04:54:08;;;;;;;9.88;2.30;;;;;;;;;;5064375;28;20064;-63
2023/03/31 04:57:50;;;;;;;12.18;2.05;;;;;;;;;;5058250;28;20052;-61
2023/03/31 05:01:31;;;;;;;10.52;2.28;;;;;;;;;;5063974;28;20530;-62
2023/03/31 05:05:11;;;;;;;13.30;2.38;;;;;;;;;;5064330;28;20048;-64
2023/03/31 05:08:50;;;;;;;10.95;2.42;;;;;;;;;;5067444;28;20047;-61
2023/03/31 05:12:30;;;;;;;10.50;2.40;;;;;;;;;;5057134;28;20044;-62
2023/03/31 05:16:13;;;;;;;10.50;2.22;;;;;;;;;;5061483;28;20271;-65
2023/03/31 05:19:51;;;;;;;8.65;2.45;;;;;;;;;;5061258;28;20488;-63
2023/03/31 05:23:32;;;;;;;14.68;2.45;;;;;;;;;;5061473;28;20044;-62
2023/03/31 05:27:12;;;;;;;12.65;2.45;;;;;;;;;;5065860;28;20051;-61
2023/03/31 05:30:52;;;;;;;6.78;2.40;;;;;;;;;;5060961;28;20063;-63
2023/03/31 05:34:33;;;;;;;13.85;2.45;;;;;;;;;;5063593;28;20048;-64
2023/03/31 05:38:13;;;;;;;9.55;2.58;;;;;;;;;;5063409;28;20063;-64
2023/03/31 05:41:53;;;;;;;18.52;3.05;;;;;;;;;;5064918;28;20055;-65
2023/03/31 05:45:34;;;;;;;14.35;2.80;;;;;;;;;;5065082;28;20048;-63
2023/03/31 05:49:15;;;;;;;10.20;2.58;;;;;;;;;;5064661;28;20044;-64
2023/03/31 05:52:55;;;;;;;15.00;2.40;;;;;;;;;;5061148;28;20377;-67
2023/03/31 05:56:35;;;;;;;14.73;2.60;;;;;;;;;;5064149;28;20079;-61
2023/03/31 06:00:16;;;;;;;17.25;2.53;;;;;;;;;;5068841;28;20101;-62
2023/03/31 06:03:56;;;;;;;17.38;2.97;;;;;;;;;;5067324;28;20079;-61
2023/03/31 06:07:36;;;;;;;17.63;2.60;;;;;;;;;;5056070;28;20044;-62
2023/03/31 06:11:20;;;;;;;15.85;3.13;;;;;;;;;;5061435;28;20536;-62
2023/03/31 06:15:01;;;;;;;16.13;2.60;;;;;;;;;;5059271;28;20505;-63
2023/03/31 06:18:41;;;;;;;14.05;2.70;;;;;;;;;;5062198;28;20044;-63
2023/03/31 06:22:21;;;;;;;17.02;2.35;;;;;;;;;;5068916;28;20044;-62
2023/03/31 06:26:02;;;;;;;19.63;2.95;;;;;;;;;;5063665;28;20052;-64
2023/03/31 06:29:42;;;;;;;17.98;2.55;;;;;;;;;;5065028;28;20481;-62
2023/03/31 06:33:22;;;;;;;14.25;3.10;;;;;;;;;;5064283;28;20486;-62
2023/03/31 06:37:03;;;;;;;20.10;3.38;;;;;;;;;;5058667;28;20086;-64
2023/03/31 06:40:43;;;;;;;16.42;2.80;;;;;;;;;;5064308;28;20052;-63
2023/03/31 06:44:24;;;;;;;12.85;3.20;;;;;;;;;;5058726;28;20052;-63
2023/03/31 06:48:04;;;;;;;10.20;2.72;;;;;;;;;;5060085;28;20138;-67
2023/03/31 06:51:44;;;;;;;14.88;2.78;;;;;;;;;;5059373;28;20045;-62
2023/03/31 06:55:28;;;;;;;13.85;2.80;;;;;;;;;;5065595;28;20590;-64
2023/03/31 06:59:09;;;;;;;17.92;3.05;;;;;;;;;;5062514;28;20063;-63
2023/03/31 07:02:50;;;;;;;14.38;3.10;;;;;;;;;;5065390;28;20040;-60
2023/03/31 07:05:51;;;;;;;15.40;2.33;;;;;;;;;;5057147;28;20048;-64
2023/03/31 07:08:20;;;;;;;19.10;3.03;;;;;;;;;;5074274;28;20117;-63
2023/03/31 07:10:47;;;;;;;25.25;2.50;;;;;;;;;;5071504;28;20040;-62
2023/03/31 07:13:17;;;;;;;13.77;2.53;;;;;;;;;;5070507;28;20399;-63
2023/03/31 07:15:46;;;;;;;23.90;2.65;;;;;;;;;;5067893;28;20048;-64
2023/03/31 07:18:14;;;;;;;17.20;2.78;;;;;;;;;;5060346;28;20055;-69
2023/03/31 07:20:40;;;;;;;27.10;2.83;;;;;;;;;;5066710;28;20319;-65
2023/03/31 07:23:07;;;;;;;11.52;1.90;;;;;;;;;;5067132;28;20088;-65
2023/03/31 07:25:34;;;;;;;16.42;2.42;;;;;;;;;;5064563;28;20046;-62
2023/03/31 07:28:01;;;;;;;15.90;2.45;;;;;;;;;;5062922;28;20274;-62
2023/03/31 07:30:28;;;;;;;16.08;2.15;;;;;;;;;;5063083;28;20056;-63
2023/03/31 07:32:54;;;;;;;14.93;2.85;;;;;;;;;;5077905;28;20481;-61
2023/03/31 07:35:21;;;;;;;18.20;2.47;;;;;;;;;;5064777;28;20052;-59
2023/03/31 07:37:49;;;;;;;27.55;3.63;;;;;;;;;;5065640;28;20040;-61
2023/03/31 07:40:20;;;;;;;29.08;3.80;;;;;;;;;;5063163;28;20048;-60
2023/03/31 07:42:47;;;;;;;30.75;3.70;;;;;;;;;;5065472;28;20412;-57
2023/03/31 07:45:15;;;;;;;24.92;4.53;;;;;;;;;;5069283;28;20464;-60
2023/03/31 07:47:42;;;;;;;23.02;3.45;;;;;;;;;;5066206;28;20114;-61
2023/03/31 07:50:09;;;;;;;41.40;3.70;;;;;;;;;;5065472;28;20515;-59
2023/03/31 07:52:35;;;;;;;42.92;5.15;;;;;;;;;;5063369;28;20040;-59
2023/03/31 07:55:01;;;;;;;29.58;3.05;;;;;;;;;;5067776;28;20047;-59
2023/03/31 07:57:27;;;;;;;31.52;3.00;;;;;;;;;;5063737;28;20109;-59
2023/03/31 07:59:52;;;;;;;36.85;3.35;;;;;;;;;;5062858;28;20048;-58
2023/03/31 08:02:19;;;;;;;21.13;2.58;;;;;;;;;;5065592;28;20072;-61
2023/03/31 08:04:46;;;;;;;28.73;2.95;;;;;;;;;;5062222;28;20052;-64
2023/03/31 08:07:14;;;;;;;29.25;3.50;;;;;;;;;;5062135;28;20048;-56
2023/03/31 08:09:42;;;;;;;31.83;2.97;;;;;;;;;;5062167;28;20192;-59
2023/03/31 08:12:09;;;;;;;25.23;2.70;;;;;;;;;;5056383;28;20104;-61
2023/03/31 08:14:35;;;;;;;29.80;2.60;;;;;;;;;;5065225;28;20503;-58
2023/03/31 08:17:01;;;;;;;28.42;2.42;;;;;;;;;;5063775;28;20032;-59
2023/03/31 08:19:28;;;;;;;20.17;2.67;;;;;;;;;;5066107;28;20049;-59
2023/03/31 08:21:54;;;;;;;22.02;2.53;;;;;;;;;;5067243;28;20036;-58
2023/03/31 08:24:20;;;;;;;16.90;2.45;;;;;;;;;;5056780;28;20071;-59
2023/03/31 08:26:47;;;;;;;24.65;2.38;;;;;;;;;;5072126;28;20052;-58
2023/03/31 08:29:13;;;;;;;20.92;3.10;;;;;;;;;;5064449;28;20045;-60
2023/03/31 08:31:40;;;;;;;16.55;3.35;;;;;;;;;;5070523;28;20048;-60
2023/03/31 08:34:06;;;;;;;28.02;3.13;;;;;;;;;;5062600;28;20049;-59
2023/03/31 08:36:32;;;;;;;24.63;3.08;;;;;;;;;;5070750;28;20561;-60
2023/03/31 08:38:58;;;;;;;16.23;2.35;;;;;;;;;;5068538;28;20129;-57
2023/03/31 08:41:24;;;;;;;23.75;2.30;;;;;;;;;;5066449;28;20184;-57
2023/03/31 08:43:53;;;;;;;20.25;2.30;;;;;;;;;;5063637;28;20089;-59
2023/03/31 08:46:19;;;;;;;22.08;2.50;;;;;;;;;;5068424;28;20059;-59
2023/03/31 08:48:54;;;;;;;19.08;2.45;;;;;;;;;;5064749;28;20500;-61
2023/03/31 08:51:28;;;;;;;17.33;2.30;;;;;;;;;;5058866;28;20052;-58
2023/03/31 08:54:06;;;;;;;32.60;2.47;;;;;;;;;;5063692;28;20073;-60
2023/03/31 08:56:37;;;;;;;29.98;2.75;;;;;;;;;;5063995;28;20091;-59
2023/03/31 08:59:05;;;;;;;19.83;2.50;;;;;;;;;;5068555;28;20075;-58
2023/03/31 09:01:48;;;;;;;16.48;2.75;;;;;;;;;;5065437;28;20052;-56
2023/03/31 09:04:16;;;;;;;20.75;2.60;;;;;;;;;;5067362;28;20044;-61
2023/03/31 09:06:57;;;;;;;17.88;2.53;;;;;;;;;;5069664;28;20045;-58
2023/03/31 09:09:43;;;;;;;18.40;2.25;;;;;;;;;;5065502;28;20128;-59
2023/03/31 09:12:16;;;;;;;13.18;2.25;;;;;;;;;;5070668;28;20056;-59
2023/03/31 09:14:57;;;;;;;16.27;2.42;;;;;;;;;;5070276;28;20055;-59
2023/03/31 09:17:28;;;;;;;19.52;2.58;;;;;;;;;;5070257;28;20037;-60
2023/03/31 09:20:09;;;;;;;16.17;2.33;;;;;;;;;;5070093;28;20049;-60
2023/03/31 09:22:43;;;;;;;12.13;1.85;;;;;;;;;;5065359;28;20127;-59
2023/03/31 09:25:11;;;;;;;14.02;2.10;;;;;;;;;;5061075;28;20040;-60
2023/03/31 09:27:41;;;;;;;18.83;2.35;;;;;;;;;;5069928;28;20104;-58
2023/03/31 09:30:23;;;;;;;18.65;2.20;;;;;;;;;;5072115;28;20116;-58
2023/03/31 09:32:55;;;;;;;16.58;2.47;;;;;;;;;;5072471;28;20048;-60
2023/03/31 09:35:27;;;;;;;12.60;2.42;;;;;;;;;;5068049;28;20049;-58
2023/03/31 09:37:54;;;;;;;9.60;1.75;;;;;;;;;;5080925;28;20085;-68
2023/03/31 09:40:23;;;;;;;12.48;2.90;;;;;;;;;;5067372;28;20053;-58
2023/03/31 09:43:07;;;;;;;12.77;2.88;;;;;;;;;;5067180;28;20437;-61
2023/03/31 09:45:34;;;;;;;7.57;2.08;;;;;;;;;;5068683;28;20044;-59
2023/03/31 09:48:10;;;;;;;12.98;2.22;;;;;;;;;;5071908;28;20146;-60
2023/03/31 09:50:45;;;;;;;12.98;2.30;;;;;;;;;;5071620;28;20112;-62
2023/03/31 09:53:20;;;;;;;25.17;2.85;;;;;;;;;;5073964;28;20049;-58
2023/03/31 09:56:10;;;;;;;12.20;2.08;;;;;;;;;;5071383;28;20083;-60
2023/03/31 09:59:55;;;;;;;18.20;2.47;;;;;;;;;;5060213;28;20036;-60
2023/03/31 10:03:35;;;;;;;17.38;2.15;;;;;;;;;;5067350;28;20056;-61
2023/03/31 10:07:15;;;;;;;9.95;1.92;;;;;;;;;;5062229;28;20105;-60
2023/03/31 10:11:08;;;;;;;12.48;2.35;;;;;;;;;;5066379;28;20254;-60
2023/03/31 10:15:04;;;;;;;15.20;2.28;;;;;;;;;;5062849;28;20515;-61
2023/03/31 10:18:44;;;;;;;15.80;2.60;;;;;;;;;;5072350;28;20493;-63
2023/03/31 10:22:34;;;;;;;12.27;2.13;;;;;;;;;;5075732;28;20060;-65
2023/03/31 10:26:14;;;;;;;9.07;2.10;;;;;;;;;;5065950;28;20037;-58
2023/03/31 10:29:56;;;;;;;14.63;2.78;;;;;;;;;;5065404;28;20285;-61
2023/03/31 10:33:36;;;;;;;9.00;2.30;;;;;;;;;;5060671;28;20250;-58
2023/03/31 10:37:16;;;;;;;13.05;2.80;;;;;;;;;;5065517;28;20552;-57
2023/03/31 10:41:00;;;;;;;14.65;2.20;;;;;;;;;;5062728;28;20049;-60
2023/03/31 10:44:55;;;;;;;14.93;2.42;;;;;;;;;;5066421;28;20368;-59
2023/03/31 10:48:38;;;;;;;17.40;2.75;;;;;;;;;;5066102;28;20118;-62
2023/03/31 10:52:18;;;;;;;12.38;3.45;;;;;;;;;;5057800;28;20056;-61
2023/03/31 10:55:50;;;;;;;11.95;2.13;;;;;;;;;;5057655;28;20044;-60
2023/03/31 10:59:13;;;;;;;17.80;2.38;;;;;;;;;;5062821;28;20048;-61
2023/03/31 11:02:38;;;;;;;14.38;2.30;;;;;;;;;;5066349;28;20132;-60
2023/03/31 11:06:31;;;;;;;9.95;2.17;;;;;;;;;;5058283;28;20051;-60
2023/03/31 11:09:44;;;;;;;13.27;2.95;;;;;;;;;;5067259;28;20661;-58
2023/03/31 11:12:57;;;;;;;11.90;2.58;;;;;;;;;;5060734;28;20081;-62
2023/03/31 11:16:46;;;;;;;12.10;2.45;;;;;;;;;;5060158;28;20233;-58
2023/03/31 11:20:27;;;;;;;9.35;2.35;;;;;;;;;;5063755;28;20048;-61
2023/03/31 11:23:36;;;;;;;20.90;2.45;;;;;;;;;;5062680;28;20056;-60
2023/03/31 11:27:11;;;;;;;20.08;2.08;;;;;;;;;;5064648;28;20130;-61
2023/03/31 11:30:32;;;;;;;16.77;2.27;;;;;;;;;;5060711;28;20056;-61
2023/03/31 11:33:51;;;;;;;7.72;2.05;;;;;;;;;;5059277;28;20052;-60
2023/03/31 11:37:18;;;;;;;9.80;2.33;;;;;;;;;;5060065;28;20459;-58
2023/03/31 11:40:53;;;;;;;11.80;2.35;;;;;;;;;;5060863;28;20514;-61
2023/03/31 11:44:51;;;;;;;13.02;2.17;;;;;;;;;;5068426;28;20052;-58
2023/03/31 11:48:29;;;;;;;18.48;2.10;;;;;;;;;;5070224;28;20786;-59
2023/03/31 11:51:54;;;;;;;19.30;2.00;;;;;;;;;;5061424;28;20270;-61
2023/03/31 11:55:37;;;;;;;15.90;2.55;;;;;;;;;;5061232;28;20039;-69
2023/03/31 11:59:00;;;;;;;13.02;1.98;;;;;;;;;;5056724;28;21001;-60
2023/03/31 12:02:39;;;;;;;12.73;1.98;;;;;;;;;;5059776;28;20139;-59
2023/03/31 12:06:22;;;;;;;13.02;2.25;;;;;;;;;;5064883;28;20121;-60
2023/03/31 12:10:14;;;;;;;16.17;2.30;;;;;;;;;;5062890;28;20051;-60
2023/03/31 12:13:55;;;;;;;20.17;2.90;;;;;;;;;;5059500;28;20056;-62
2023/03/31 12:17:40;;;;;;;11.38;1.90;;;;;;;;;;5062184;28;20704;-60
2023/03/31 12:21:19;;;;;;;13.95;2.00;;;;;;;;;;5063502;28;20048;-60
2023/03/31 12:24:59;;;;;;;9.45;1.83;;;;;;;;;;5055590;28;20408;-58
2023/03/31 12:28:40;;;;;;;17.40;2.10;;;;;;;;;;5063144;28;20087;-61
2023/03/31 12:32:20;;;;;;;12.30;2.08;;;;;;;;;;5055220;28;20515;-62
2023/03/31 12:36:16;;;;;;;15.90;2.00;;;;;;;;;;5067400;28;20047;-62
2023/03/31 12:39:37;;;;;;;11.90;1.90;;;;;;;;;;5068701;28;20070;-62
2023/03/31 12:43:07;;;;;;;11.00;2.20;;;;;;;;;;5059479;28;20055;-66
2023/03/31 12:46:33;;;;;;;12.52;2.17;;;;;;;;;;5066993;28;20546;-59
2023/03/31 12:49:55;;;;;;;10.68;1.90;;;;;;;;;;5064621;28;20055;-60
2023/03/31 12:53:31;;;;;;;10.30;1.67;;;;;;;;;;5058539;28;20063;-60
2023/03/31 12:57:00;;;;;;;13.68;1.92;;;;;;;;;;5061201;28;20045;-62
2023/03/31 13:00:09;;;;;;;13.77;2.03;;;;;;;;;;5065426;28;20044;-58
2023/03/31 13:03:49;;;;;;;11.85;2.03;;;;;;;;;;5062669;28;20257;-59
2023/03/31 13:07:24;;;;;;;10.02;1.92;;;;;;;;;;5062706;28;20067;-60
2023/03/31 13:11:17;;;;;;;18.75;2.03;;;;;;;;;;5064778;28;20076;-59
2023/03/31 13:15:02;;;;;;;8.82;1.80;;;;;;;;;;5061998;28;20110;-61
2023/03/31 13:18:43;;;;;;;9.90;1.90;;;;;;;;;;5072686;28;20059;-59
2023/03/31 13:22:25;;;;;;;13.95;1.55;;;;;;;;;;5076208;28;20087;-61
2023/03/31 13:26:06;;;;;;;7.82;1.75;;;;;;;;;;5058076;28;20079;-60
2023/03/31 13:30:02;;;;;;;9.50;1.80;;;;;;;;;;5058321;28;20048;-53
2023/03/31 13:33:23;;;;;;;8.68;2.20;;;;;;;;;;5059852;28;20063;-56
2023/03/31 13:37:03;;;;;;;13.73;1.70;;;;;;;;;;5061780;28;20116;-56
2023/03/31 13:40:54;;;;;;;10.10;2.15;;;;;;;;;;5059968;28;20130;-61
2023/03/31 13:44:26;;;;;;;13.07;2.25;;;;;;;;;;5060433;28;20040;-61
2023/03/31 13:47:41;;;;;;;9.27;2.17;;;;;;;;;;5058716;28;20661;-60
2023/03/31 13:51:13;;;;;;;13.98;2.00;;;;;;;;;;5059068;28;20036;-61
2023/03/31 13:54:32;;;;;;;12.48;2.03;;;;;;;;;;5068994;28;20098;-60
2023/03/31 13:57:56;;;;;;;9.57;1.92;;;;;;;;;;5059829;28;20219;-60
2023/03/31 14:01:18;;;;;;;11.93;1.83;;;;;;;;;;5061804;28;20036;-61
2023/03/31 14:04:43;;;;;;;9.57;1.80;;;;;;;;;;5066142;28;20049;-61
2023/03/31 14:08:03;;;;;;;8.13;1.60;;;;;;;;;;5066601;28;20052;-67
2023/03/31 14:11:57;;;;;;;9.38;1.77;;;;;;;;;;5066828;28;20120;-63
2023/03/31 14:15:37;;;;;;;11.93;1.90;;;;;;;;;;5065647;28;21202;-59
2023/03/31 14:19:17;;;;;;;8.10;2.05;;;;;;;;;;5067026;28;20044;-62
2023/03/31 14:22:38;;;;;;;8.93;1.92;;;;;;;;;;5050272;28;20044;-58
2023/03/31 14:26:17;;;;;;;9.75;2.42;;;;;;;;;;5063579;28;20496;-60
2023/03/31 14:30:01;;;;;;;5.65;1.60;;;;;;;;;;5065119;28;20090;-62
2023/03/31 14:33:14;;;;;;;8.43;1.60;;;;;;;;;;5055319;28;20296;-61
2023/03/31 14:36:38;;;;;;;6.28;1.70;;;;;;;;;;5063921;28;20041;-59
2023/03/31 14:40:21;;;;;;;9.60;1.80;;;;;;;;;;5064975;28;20132;-58
2023/03/31 14:44:02;;;;;;;15.95;1.75;;;;;;;;;;5065105;28;20474;-59
2023/03/31 14:47:42;;;;;;;14.10;2.10;;;;;;;;;;5068475;28;20123;-61
2023/03/31 14:51:23;;;;;;;8.35;1.65;;;;;;;;;;5071365;28;20147;-58
2023/03/31 14:55:03;;;;;;;7.97;1.60;;;;;;;;;;5064190;28;20079;-58
2023/03/31 14:58:44;;;;;;;5.57;1.65;;;;;;;;;;5063958;28;20055;-58
2023/03/31 15:02:24;;;;;;;9.45;2.15;;;;;;;;;;5061723;28;20111;-58
2023/03/31 15:06:10;;;;;;;9.23;1.70;;;;;;;;;;5064946;28;20037;-60
2023/03/31 15:09:57;;;;;;;11.23;2.25;;;;;;;;;;5059544;28;20489;-61
2023/03/31 15:13:37;;;;;;;8.50;2.90;;;;;;;;;;5058430;28;20783;-61
2023/03/31 15:17:18;;;;;;;9.50;2.17;;;;;;;;;;5065431;28;20052;-62
2023/03/31 15:21:04;;;;;;;7.22;1.50;;;;;;;;;;5071234;28;20516;-58
2023/03/31 15:24:46;;;;;;;11.38;1.90;;;;;;;;;;5061430;28;20476;-62
2023/03/31 15:28:26;;;;;;;8.93;2.00;;;;;;;;;;5061550;28;20083;-70
2023/03/31 15:32:08;;;;;;;10.80;2.00;;;;;;;;;;5065463;28;20044;-62
2023/03/31 15:36:01;;;;;;;11.77;1.73;;;;;;;;;;5058139;28;20059;-62
2023/03/31 15:39:41;;;;;;;9.88;1.83;;;;;;;;;;5051391;28;20060;-60
2023/03/31 15:43:13;;;;;;;11.77;2.00;;;;;;;;;;5059043;28;20516;-61
2023/03/31 15:46:37;;;;;;;15.80;1.98;;;;;;;;;;5060402;28;20055;-61
2023/03/31 15:50:17;;;;;;;7.43;1.58;;;;;;;;;;5060594;28;20056;-62
2023/03/31 15:54:04;;;;;;;15.23;1.67;;;;;;;;;;5054379;28;20049;-61
2023/03/31 15:57:50;;;;;;;14.02;1.67;;;;;;;;;;5060574;28;20124;-60
2023/03/31 16:01:31;;;;;;;12.77;2.15;;;;;;;;;;5070456;28;20047;-62
2023/03/31 16:05:10;;;;;;;16.80;2.50;;;;;;;;;;5058960;28;20160;-64
2023/03/31 16:08:56;;;;;;;17.45;2.13;;;;;;;;;;5068367;28;20086;-61
2023/03/31 16:12:36;;;;;;;19.42;2.22;;;;;;;;;;5060832;28;20048;-62
2023/03/31 16:16:17;;;;;;;11.93;2.33;;;;;;;;;;5056933;28;20124;-66
2023/03/31 16:19:45;;;;;;;8.15;1.90;;;;;;;;;;5060035;28;20615;-60
2023/03/31 16:22:20;;;;;;;12.77;1.90;;;;;;;;;;5053341;28;20037;-62
2023/03/31 16:24:47;;;;;;;9.25;2.03;;;;;;;;;;5056926;28;20060;-62
2023/03/31 16:27:13;;;;;;;13.48;1.85;;;;;;;;;;5058090;28;20417;-60
2023/03/31 16:29:39;;;;;;;11.68;1.75;;;;;;;;;;5062652;28;20484;-63
2023/03/31 16:32:12;;;;;;;8.48;1.55;;;;;;;;;;5067899;28;20048;-64
2023/03/31 16:35:01;;;;;;;8.65;1.92;;;;;;;;;;5060906;28;20123;-61
2023/03/31 16:37:27;;;;;;;7.18;1.60;;;;;;;;;;5062257;28;20514;-60
2023/03/31 16:39:54;;;;;;;8.27;1.60;;;;;;;;;;5061336;28;20048;-60
2023/03/31 16:42:21;;;;;;;10.48;1.95;;;;;;;;;;5069026;28;20056;-62
2023/03/31 16:44:47;;;;;;;10.05;1.73;;;;;;;;;;5071492;28;20048;-63
2023/03/31 16:47:14;;;;;;;14.18;2.10;;;;;;;;;;5061246;28;20048;-62
2023/03/31 16:49:40;;;;;;;8.90;1.77;;;;;;;;;;5056977;28;20044;-60
2023/03/31 16:52:46;;;;;;;12.98;1.80;;;;;;;;;;5053468;28;20056;-59
2023/03/31 16:56:26;;;;;;;7.18;1.60;;;;;;;;;;5057719;28;20056;-62
2023/03/31 17:00:07;;;;;;;7.88;1.77;;;;;;;;;;5060263;28;20044;-65
2023/03/31 17:03:47;;;;;;;12.95;2.20;;;;;;;;;;5059383;28;20473;-61
2023/03/31 17:07:29;;;;;;;7.72;1.73;;;;;;;;;;5063333;28;20067;-61
2023/03/31 17:11:10;;;;;;;6.78;1.80;;;;;;;;;;5068929;28;20172;-60
2023/03/31 17:14:49;;;;;;;11.90;2.38;;;;;;;;;;5070076;28;20075;-60
2023/03/31 17:18:29;;;;;;;13.63;2.10;;;;;;;;;;5061381;28;20336;-60
2023/03/31 17:22:10;;;;;;;10.20;1.83;;;;;;;;;;5052010;28;20634;-62
2023/03/31 17:25:50;;;;;;;12.75;1.50;;;;;;;;;;5051923;28;20129;-62
2023/03/31 17:29:31;;;;;;;3.17;1.80;;;;;;;;;;5041714;28;20478;-64
2023/03/31 17:33:12;;;;;;;6.18;1.30;;;;;;;;;;5054635;28;20151;-64
2023/03/31 17:36:54;;;;;;;5.60;1.40;;;;;;;;;;5065989;28;20185;-61
2023/03/31 17:39:54;;;;;;;3.53;1.40;;;;;;;;;;5060632;28;20408;-65
2023/03/31 17:42:21;;;;;;;7.85;1.50;;;;;;;;;;5060990;28;20049;-65
2023/03/31 17:44:50;;;;;;;4.90;1.40;;;;;;;;;;5065526;28;20097;-63
2023/03/31 17:47:17;;;;;;;4.00;1.63;;;;;;;;;;5060822;28;20149;-64
2023/03/31 17:49:43;;;;;;;3.88;1.38;;;;;;;;;;5059779;28;20075;-63
2023/03/31 17:52:10;;;;;;;8.25;1.40;;;;;;;;;;5058961;28;20049;-62
2023/03/31 17:54:36;;;;;;;6.55;2.10;;;;;;;;;;5063044;28;20058;-61
2023/03/31 17:57:02;;;;;;;6.40;1.38;;;;;;;;;;5063164;28;20048;-65
2023/03/31 17:59:28;;;;;;;10.00;1.30;;;;;;;;;;5070536;28;20040;-65
2023/03/31 18:01:55;;;;;;;5.80;1.70;;;;;;;;;;5059032;28;20029;-62
2023/03/31 18:04:22;;;;;;;5.85;1.83;;;;;;;;;;5059073;28;20045;-63
2023/03/31 18:06:50;;;;;;;5.35;1.70;;;;;;;;;;5058167;28;20458;-62
2023/03/31 18:09:16;;;;;;;5.50;1.23;;;;;;;;;;5062741;28;20082;-61
2023/03/31 18:11:46;;;;;;;8.75;1.75;;;;;;;;;;5057082;28;20052;-62
2023/03/31 18:14:12;;;;;;;6.38;1.95;;;;;;;;;;5054387;28;20142;-59
2023/03/31 18:16:38;;;;;;;7.53;1.52;;;;;;;;;;5053699;28;20482;-64
2023/03/31 18:19:04;;;;;;;6.43;1.50;;;;;;;;;;5058836;28;20496;-63
2023/03/31 18:21:30;;;;;;;6.03;1.25;;;;;;;;;;5064916;28;20052;-63
2023/03/31 18:23:56;;;;;;;4.80;1.60;;;;;;;;;;5067646;28;20055;-63
2023/03/31 18:26:23;;;;;;;4.78;1.63;;;;;;;;;;5062597;28;20049;-60
2023/03/31 18:28:50;;;;;;;7.65;1.67;;;;;;;;;;5061136;28;20057;-61
2023/03/31 18:31:20;;;;;;;10.13;1.52;;;;;;;;;;5057013;28;20070;-63
2023/03/31 18:33:45;;;;;;;5.85;1.50;;;;;;;;;;5058883;28;20168;-65
2023/03/31 18:36:19;;;;;;;5.72;1.40;;;;;;;;;;5057933;28;20048;-61
2023/03/31 18:38:49;;;;;;;6.07;1.52;;;;;;;;;;5051559;28;20416;-61
2023/03/31 18:41:19;;;;;;;4.32;2.05;;;;;;;;;;5050100;28;20063;-62
2023/03/31 18:43:50;;;;;;;3.28;1.45;;;;;;;;;;5045577;28;21861;-57
2023/03/31 18:46:18;;;;;;;6.80;1.60;;;;;;;;;;5060296;28;20037;-59
2023/03/31 18:48:44;;;;;;;5.45;1.35;;;;;;;;;;5055061;28;20049;-57
2023/03/31 18:51:11;;;;;;;5.63;1.30;;;;;;;;;;5064508;28;20512;-61
2023/03/31 18:53:37;;;;;;;8.07;1.40;;;;;;;;;;5060938;28;20143;-59
2023/03/31 18:56:03;;;;;;;6.57;1.48;;;;;;;;;;5062841;28;20068;-55
2023/03/31 18:58:30;;;;;;;4.65;1.30;;;;;;;;;;5055648;28;20053;-55
2023/03/31 19:01:00;;;;;;;6.22;1.98;;;;;;;;;;5071349;28;20053;-59
2023/03/31 19:03:26;;;;;;;5.30;1.50;;;;;;;;;;5060133;28;20053;-59
2023/03/31 19:05:59;;;;;;;3.67;1.20;;;;;;;;;;5051590;28;20049;-58
2023/03/31 19:08:24;;;;;;;6.43;1.88;;;;;;;;;;5057412;28;20130;-57
2023/03/31 19:11:01;;;;;;;5.82;1.38;;;;;;;;;;5051581;28;20135;-59
2023/03/31 19:13:27;;;;;;;4.25;1.60;;;;;;;;;;5048503;28;20575;-57
2023/03/31 19:15:53;;;;;;;6.40;1.50;;;;;;;;;;5054477;28;20041;-60